Time;durP1;ratioP1;P1;durP2;ratioP2;P2;SDS_P1;SDS_P2;PMS_P1;PMS_P2;Temp;Humidity;BMP_temperature;BMP_pressure;BME280_temperature;BME280_humidity;BME280_pressure;Samples;Min_cycle;Max_cycle;Signal;HPM_P1;HPM_P2
2024/04/27 00:00:22;;;;;;;1.90;1.30;;;;;;;;;;5531170;26;20316;-78
2024/04/27 00:02:48;;;;;;;1.50;1.40;;;;;;;;;;5531462;26;20331;-77
2024/04/27 00:05:16;;;;;;;1.30;1.20;;;;;;;;;;5531741;26;20327;-78
2024/04/27 00:07:42;;;;;;;1.48;1.38;;;;;;;;;;5531226;26;20800;-77
2024/04/27 00:10:08;;;;;;;1.45;1.23;;;;;;;;;;5530985;26;20868;-77
2024/04/27 00:12:34;;;;;;;1.88;1.30;;;;;;;;;;5531024;26;20331;-77
2024/04/27 00:15:00;;;;;;;1.30;1.20;;;;;;;;;;5531171;26;20656;-77
2024/04/27 00:17:26;;;;;;;1.60;1.50;;;;;;;;;;5527498;26;20327;-77
2024/04/27 00:19:53;;;;;;;1.30;1.20;;;;;;;;;;5526673;26;20376;-77
2024/04/27 00:22:19;;;;;;;1.70;1.60;;;;;;;;;;5526888;26;20328;-77
2024/04/27 00:24:45;;;;;;;2.42;2.10;;;;;;;;;;5526931;26;20701;-77
2024/04/27 00:27:11;;;;;;;3.00;2.80;;;;;;;;;;5527430;26;20507;-77
2024/04/27 00:29:37;;;;;;;3.30;3.00;;;;;;;;;;5525932;26;20650;-77
2024/04/27 00:32:03;;;;;;;2.90;2.70;;;;;;;;;;5527160;26;20335;-77
2024/04/27 00:34:29;;;;;;;2.58;2.20;;;;;;;;;;5512103;26;20327;-77
2024/04/27 00:36:55;;;;;;;2.28;2.08;;;;;;;;;;5525896;26;20407;-77
2024/04/27 00:39:21;;;;;;;2.20;2.00;;;;;;;;;;5526255;26;20347;-77
2024/04/27 00:41:47;;;;;;;1.85;1.73;;;;;;;;;;5526687;26;20832;-77
2024/04/27 00:44:13;;;;;;;1.52;1.42;;;;;;;;;;5526980;26;20375;-77
2024/04/27 00:46:39;;;;;;;1.50;1.40;;;;;;;;;;5526607;26;20332;-77
2024/04/27 00:49:05;;;;;;;1.40;1.30;;;;;;;;;;5526320;26;20331;-77
2024/04/27 00:51:31;;;;;;;1.60;1.23;;;;;;;;;;5526640;26;20368;-77
2024/04/27 00:53:59;;;;;;;1.50;1.40;;;;;;;;;;5526419;26;20335;-77
2024/04/27 00:56:25;;;;;;;1.40;1.30;;;;;;;;;;5527572;26;20335;-78
2024/04/27 00:58:51;;;;;;;1.88;1.00;;;;;;;;;;5527533;26;20328;-78
2024/04/27 01:01:17;;;;;;;1.77;1.08;;;;;;;;;;5528117;26;20332;-78
2024/04/27 01:03:44;;;;;;;1.30;1.20;;;;;;;;;;5528107;26;20422;-77
2024/04/27 01:06:10;;;;;;;1.40;1.30;;;;;;;;;;5527350;26;20820;-78
2024/04/27 01:08:46;;;;;;;1.50;1.20;;;;;;;;;;5527784;26;20473;-78
2024/04/27 01:11:12;;;;;;;1.20;1.10;;;;;;;;;;5527605;26;20831;-78
2024/04/27 01:13:38;;;;;;;0.95;0.95;;;;;;;;;;5527511;26;20365;-78
2024/04/27 01:16:04;;;;;;;1.00;0.93;;;;;;;;;;5527369;26;20327;-78
2024/04/27 01:18:30;;;;;;;1.20;1.10;;;;;;;;;;5526976;26;20335;-78
2024/04/27 01:20:56;;;;;;;1.00;1.00;;;;;;;;;;5527761;26;20577;-78
2024/04/27 01:23:23;;;;;;;1.20;1.10;;;;;;;;;;5527235;26;20406;-78
2024/04/27 01:25:49;;;;;;;1.45;1.13;;;;;;;;;;5527512;26;20398;-78
2024/04/27 01:28:15;;;;;;;1.30;1.10;;;;;;;;;;5525495;26;20366;-78
2024/04/27 01:30:42;;;;;;;2.13;1.10;;;;;;;;;;5528158;26;20327;-78
2024/04/27 01:33:08;;;;;;;1.30;1.00;;;;;;;;;;5527823;26;20812;-78
2024/04/27 01:35:34;;;;;;;1.15;1.00;;;;;;;;;;5511927;26;20372;-78
2024/04/27 01:38:00;;;;;;;1.20;1.10;;;;;;;;;;5527637;26;20332;-78
2024/04/27 01:40:28;;;;;;;1.30;1.20;;;;;;;;;;5527893;26;20377;-78
2024/04/27 01:42:54;;;;;;;1.27;1.17;;;;;;;;;;5527897;26;20379;-78
2024/04/27 01:45:20;;;;;;;1.30;1.20;;;;;;;;;;5527881;26;20332;-78
2024/04/27 01:47:46;;;;;;;1.17;1.08;;;;;;;;;;5520511;26;20728;-77
2024/04/27 01:50:12;;;;;;;1.40;1.10;;;;;;;;;;5527422;26;20389;-77
2024/04/27 01:52:38;;;;;;;1.00;1.00;;;;;;;;;;5527283;26;20327;-78
2024/04/27 01:55:04;;;;;;;2.50;1.10;;;;;;;;;;5527708;26;20327;-78
2024/04/27 01:57:30;;;;;;;1.23;1.13;;;;;;;;;;5527486;26;20370;-78
2024/04/27 01:59:56;;;;;;;1.33;1.23;;;;;;;;;;5522357;26;20328;-78
2024/04/27 02:02:22;;;;;;;1.10;1.00;;;;;;;;;;5527312;26;21047;-78
2024/04/27 02:04:48;;;;;;;1.13;1.02;;;;;;;;;;5508341;26;20334;-78
2024/04/27 02:07:14;;;;;;;1.45;1.10;;;;;;;;;;5520399;26;20828;-77
2024/04/27 02:09:40;;;;;;;1.23;1.07;;;;;;;;;;5527456;26;20393;-77
2024/04/27 02:12:06;;;;;;;1.30;1.17;;;;;;;;;;5527362;26;20327;-78
2024/04/27 02:14:32;;;;;;;1.10;1.10;;;;;;;;;;5527618;26;20371;-78
2024/04/27 02:19:43;;;;;;;1.40;1.30;;;;;;;;;;5474703;26;20898;-78
2024/04/27 02:22:09;;;;;;;1.00;1.00;;;;;;;;;;5526860;26;20379;-78
2024/04/27 02:24:35;;;;;;;1.08;1.00;;;;;;;;;;5526890;26;20820;-77
2024/04/27 02:27:01;;;;;;;1.20;1.10;;;;;;;;;;5527143;26;20340;-78
2024/04/27 02:29:27;;;;;;;1.05;0.95;;;;;;;;;;5526867;26;20383;-78
2024/04/27 02:31:53;;;;;;;2.33;1.00;;;;;;;;;;5526698;26;20820;-78
2024/04/27 02:34:22;;;;;;;2.00;1.73;;;;;;;;;;5526167;26;20343;-77
2024/04/27 02:36:48;;;;;;;2.85;2.65;;;;;;;;;;5526792;26;20323;-77
2024/04/27 02:39:14;;;;;;;1.00;1.00;;;;;;;;;;5525398;26;20368;-78
2024/04/27 02:41:40;;;;;;;1.30;1.20;;;;;;;;;;5526408;26;20375;-78
2024/04/27 02:44:06;;;;;;;1.42;1.10;;;;;;;;;;5526504;26;20331;-78
2024/04/27 02:46:32;;;;;;;1.17;1.05;;;;;;;;;;5527196;26;20349;-78
2024/04/27 02:48:58;;;;;;;1.80;1.20;;;;;;;;;;5526189;26;20748;-78
2024/04/27 02:51:24;;;;;;;1.50;1.40;;;;;;;;;;5527053;26;20336;-77
2024/04/27 02:53:50;;;;;;;1.20;1.10;;;;;;;;;;5526543;26;20320;-77
2024/04/27 02:56:16;;;;;;;1.10;1.00;;;;;;;;;;5526619;26;20440;-77
2024/04/27 02:58:42;;;;;;;1.85;0.95;;;;;;;;;;5526204;26;20836;-78
2024/04/27 03:01:08;;;;;;;0.90;0.90;;;;;;;;;;5526192;26;20349;-78
2024/04/27 03:03:34;;;;;;;0.90;0.90;;;;;;;;;;5525607;26;20351;-78
2024/04/27 03:06:03;;;;;;;1.20;1.10;;;;;;;;;;5526065;26;20884;-78
2024/04/27 03:08:29;;;;;;;0.80;0.80;;;;;;;;;;5525572;26;20857;-78
2024/04/27 03:10:55;;;;;;;1.67;1.20;;;;;;;;;;5525653;26;20395;-76
2024/04/27 03:13:21;;;;;;;1.35;1.17;;;;;;;;;;5524058;26;20925;-77
2024/04/27 03:15:48;;;;;;;1.60;1.10;;;;;;;;;;5524402;26;20316;-77
2024/04/27 03:18:14;;;;;;;1.20;1.10;;;;;;;;;;5523977;26;20656;-77
2024/04/27 03:20:40;;;;;;;1.70;1.17;;;;;;;;;;5524087;26;20315;-77
2024/04/27 03:23:05;;;;;;;0.95;0.90;;;;;;;;;;5524174;26;20355;-76
2024/04/27 03:25:32;;;;;;;1.00;0.90;;;;;;;;;;5524080;26;20455;-77
2024/04/27 03:27:58;;;;;;;1.15;1.05;;;;;;;;;;5522112;26;20429;-77
2024/04/27 03:30:24;;;;;;;1.35;1.25;;;;;;;;;;5524333;26;20332;-77
2024/04/27 03:32:50;;;;;;;1.70;1.60;;;;;;;;;;5523622;26;20367;-77
2024/04/27 03:35:16;;;;;;;1.60;1.30;;;;;;;;;;5523739;26;20364;-77
2024/04/27 03:37:48;;;;;;;1.80;1.45;;;;;;;;;;5523686;26;20383;-77
2024/04/27 03:40:14;;;;;;;1.70;1.10;;;;;;;;;;5523762;26;20328;-77
2024/04/27 03:42:39;;;;;;;1.10;1.00;;;;;;;;;;5523905;26;20350;-76
2024/04/27 03:45:06;;;;;;;1.17;1.08;;;;;;;;;;5523851;26;20339;-77
2024/04/27 03:47:32;;;;;;;1.48;1.20;;;;;;;;;;5521892;26;20364;-76
2024/04/27 03:49:58;;;;;;;1.38;1.27;;;;;;;;;;5519239;26;20392;-77
2024/04/27 03:52:24;;;;;;;1.30;1.20;;;;;;;;;;5525330;26;20372;-76
2024/04/27 03:54:50;;;;;;;1.20;1.10;;;;;;;;;;5527093;26;20685;-77
2024/04/27 03:57:16;;;;;;;1.60;1.20;;;;;;;;;;5527144;26;20339;-77
2024/04/27 03:59:42;;;;;;;1.20;1.10;;;;;;;;;;5526771;26;20324;-77
2024/04/27 04:02:08;;;;;;;1.73;1.33;;;;;;;;;;5527357;26;20331;-76
2024/04/27 04:04:34;;;;;;;2.63;1.35;;;;;;;;;;5527606;26;20324;-76
2024/04/27 04:07:00;;;;;;;1.80;1.15;;;;;;;;;;5527466;26;20324;-77
2024/04/27 04:09:28;;;;;;;2.85;1.40;;;;;;;;;;5526373;25;20320;-77
2024/04/27 04:11:54;;;;;;;1.10;1.00;;;;;;;;;;5527196;25;20319;-79
2024/04/27 04:14:20;;;;;;;1.40;1.08;;;;;;;;;;5527002;26;20812;-76
2024/04/27 04:16:46;;;;;;;1.20;1.10;;;;;;;;;;5527331;26;20324;-76
2024/04/27 04:19:13;;;;;;;1.10;1.00;;;;;;;;;;5526592;26;20319;-76
2024/04/27 04:21:39;;;;;;;1.20;1.10;;;;;;;;;;5521310;25;20393;-76
2024/04/27 04:24:07;;;;;;;1.13;1.00;;;;;;;;;;5523953;26;20331;-77
2024/04/27 04:26:34;;;;;;;2.28;1.00;;;;;;;;;;5501307;26;20414;-76
2024/04/27 04:29:00;;;;;;;1.52;1.20;;;;;;;;;;5525895;26;21153;-76
2024/04/27 04:31:26;;;;;;;1.30;0.90;;;;;;;;;;5525942;26;20331;-77
2024/04/27 04:33:52;;;;;;;2.10;1.27;;;;;;;;;;5494034;26;20363;-77
2024/04/27 04:36:18;;;;;;;2.30;1.20;;;;;;;;;;5526662;26;20692;-77
2024/04/27 04:38:44;;;;;;;1.45;1.02;;;;;;;;;;5526390;26;20414;-77
2024/04/27 04:41:11;;;;;;;1.63;1.30;;;;;;;;;;5526962;26;20726;-77
2024/04/27 04:43:36;;;;;;;1.30;1.20;;;;;;;;;;5526696;26;20654;-77
2024/04/27 04:46:03;;;;;;;1.45;1.27;;;;;;;;;;5526739;26;20323;-77
2024/04/27 04:48:31;;;;;;;1.27;1.02;;;;;;;;;;5526238;26;20378;-77
2024/04/27 04:51:01;;;;;;;1.50;1.00;;;;;;;;;;5526443;26;20324;-77
2024/04/27 04:53:27;;;;;;;0.98;0.90;;;;;;;;;;5526592;26;20319;-77
2024/04/27 04:55:53;;;;;;;1.30;1.20;;;;;;;;;;5526356;26;20368;-77
2024/04/27 04:58:19;;;;;;;1.80;1.50;;;;;;;;;;5526317;26;20328;-76
2024/04/27 05:00:45;;;;;;;1.30;1.20;;;;;;;;;;5526195;26;20327;-77
2024/04/27 05:03:12;;;;;;;1.60;1.33;;;;;;;;;;5526206;26;20328;-77
2024/04/27 05:05:38;;;;;;;1.30;1.20;;;;;;;;;;5527319;26;20319;-77
2024/04/27 05:08:06;;;;;;;1.60;1.30;;;;;;;;;;5526079;26;20424;-77
2024/04/27 05:10:32;;;;;;;2.60;2.10;;;;;;;;;;5526209;26;20344;-77
2024/04/27 05:12:58;;;;;;;2.05;1.85;;;;;;;;;;5526569;25;20358;-77
2024/04/27 05:15:24;;;;;;;3.00;1.90;;;;;;;;;;5526661;26;20357;-77
2024/04/27 05:17:50;;;;;;;2.08;1.80;;;;;;;;;;5526014;26;20406;-76
2024/04/27 05:20:16;;;;;;;1.92;1.77;;;;;;;;;;5526339;26;20324;-77
2024/04/27 05:22:42;;;;;;;2.80;1.50;;;;;;;;;;5526394;25;20390;-76
2024/04/27 05:25:08;;;;;;;2.05;1.77;;;;;;;;;;5526495;26;20319;-77
2024/04/27 05:27:34;;;;;;;3.33;2.80;;;;;;;;;;5525787;26;20320;-76
2024/04/27 05:30:00;;;;;;;3.30;2.35;;;;;;;;;;5525449;26;20380;-77
2024/04/27 05:32:26;;;;;;;2.50;2.30;;;;;;;;;;5525874;26;20324;-77
2024/04/27 05:34:54;;;;;;;3.85;3.05;;;;;;;;;;5525731;26;20805;-77
2024/04/27 05:37:20;;;;;;;3.92;2.00;;;;;;;;;;5526158;25;20320;-77
2024/04/27 05:39:46;;;;;;;2.00;1.70;;;;;;;;;;5525790;26;20363;-77
2024/04/27 05:42:12;;;;;;;1.98;1.55;;;;;;;;;;5526442;26;20324;-77
2024/04/27 05:44:38;;;;;;;1.80;1.60;;;;;;;;;;5526074;26;20354;-77
2024/04/27 05:47:05;;;;;;;1.80;1.70;;;;;;;;;;5526485;26;20328;-77
2024/04/27 05:49:31;;;;;;;2.42;2.22;;;;;;;;;;5523905;26;20410;-77
2024/04/27 05:51:57;;;;;;;2.60;2.40;;;;;;;;;;5521188;26;20327;-77
2024/04/27 05:54:22;;;;;;;2.08;1.80;;;;;;;;;;5521740;26;20646;-77
2024/04/27 05:56:48;;;;;;;1.95;1.58;;;;;;;;;;5513814;26;20331;-78
2024/04/27 05:59:14;;;;;;;1.90;1.80;;;;;;;;;;5525580;26;20922;-77
2024/04/27 06:01:40;;;;;;;1.80;1.70;;;;;;;;;;5508593;26;20335;-77
2024/04/27 06:04:06;;;;;;;2.15;1.80;;;;;;;;;;5525450;26;20320;-77
2024/04/27 06:06:32;;;;;;;2.17;1.57;;;;;;;;;;5525579;26;20929;-77
2024/04/27 06:08:58;;;;;;;2.70;2.22;;;;;;;;;;5525198;26;20363;-77
2024/04/27 06:11:24;;;;;;;1.90;1.80;;;;;;;;;;5525364;26;20661;-77
2024/04/27 06:13:50;;;;;;;1.92;1.83;;;;;;;;;;5524800;26;20320;-78
2024/04/27 06:16:16;;;;;;;2.83;1.85;;;;;;;;;;5525157;26;20828;-78
2024/04/27 06:18:42;;;;;;;2.03;1.80;;;;;;;;;;5525764;26;20315;-78
2024/04/27 06:21:08;;;;;;;2.45;1.90;;;;;;;;;;5525358;26;20327;-78
2024/04/27 06:23:34;;;;;;;2.28;2.00;;;;;;;;;;5525503;26;20417;-78
2024/04/27 06:26:01;;;;;;;2.88;2.58;;;;;;;;;;5525446;26;20327;-78
2024/04/27 06:28:27;;;;;;;4.45;3.17;;;;;;;;;;5524499;26;20328;-77
2024/04/27 06:30:53;;;;;;;4.10;3.80;;;;;;;;;;5525507;26;20383;-77
2024/04/27 06:33:19;;;;;;;4.45;4.07;;;;;;;;;;5524894;26;20327;-77
2024/04/27 06:35:46;;;;;;;4.72;4.32;;;;;;;;;;5525095;26;20425;-77
2024/04/27 06:38:12;;;;;;;4.43;4.13;;;;;;;;;;5524588;25;20324;-77
2024/04/27 06:40:38;;;;;;;4.65;4.25;;;;;;;;;;5525828;26;20332;-77
2024/04/27 06:43:04;;;;;;;5.53;5.13;;;;;;;;;;5525063;26;20376;-79
2024/04/27 06:45:31;;;;;;;5.70;5.20;;;;;;;;;;5525259;26;20331;-80
2024/04/27 06:47:57;;;;;;;4.65;4.25;;;;;;;;;;5525851;25;20323;-80
2024/04/27 06:50:23;;;;;;;6.47;5.90;;;;;;;;;;5524821;26;20812;-78
2024/04/27 06:52:49;;;;;;;5.00;4.50;;;;;;;;;;5525307;26;20412;-78
2024/04/27 06:55:15;;;;;;;3.80;3.60;;;;;;;;;;5525251;26;20323;-78
2024/04/27 06:57:41;;;;;;;4.30;4.00;;;;;;;;;;5526170;26;20729;-78
2024/04/27 07:00:07;;;;;;;4.32;3.90;;;;;;;;;;5526007;26;20816;-79
2024/04/27 07:02:35;;;;;;;4.25;3.95;;;;;;;;;;5525844;26;20316;-78
2024/04/27 07:05:01;;;;;;;4.30;4.00;;;;;;;;;;5525772;25;20357;-79
2024/04/27 07:07:27;;;;;;;4.63;3.90;;;;;;;;;;5525067;26;20319;-79
2024/04/27 07:09:54;;;;;;;3.78;3.47;;;;;;;;;;5525175;26;20846;-79
2024/04/27 07:12:20;;;;;;;3.30;3.00;;;;;;;;;;5525354;25;20315;-79
2024/04/27 07:14:46;;;;;;;3.20;2.90;;;;;;;;;;5524988;26;20324;-79
2024/04/27 07:17:12;;;;;;;3.53;3.33;;;;;;;;;;5525493;26;20323;-80
2024/04/27 07:19:38;;;;;;;3.53;3.17;;;;;;;;;;5524274;26;20331;-79
2024/04/27 07:22:04;;;;;;;3.35;3.05;;;;;;;;;;5524570;26;20359;-79
2024/04/27 07:24:30;;;;;;;3.88;3.20;;;;;;;;;;5525267;26;20324;-79
2024/04/27 07:26:56;;;;;;;3.65;2.88;;;;;;;;;;5527072;26;20872;-79
2024/04/27 07:29:22;;;;;;;3.22;2.67;;;;;;;;;;5527916;26;20331;-79
2024/04/27 07:31:48;;;;;;;3.20;2.90;;;;;;;;;;5528205;26;20376;-79
2024/04/27 07:34:14;;;;;;;2.88;2.67;;;;;;;;;;5526402;26;20327;-79
2024/04/27 07:36:40;;;;;;;3.13;2.92;;;;;;;;;;5528409;25;20372;-79
2024/04/27 07:39:06;;;;;;;3.00;2.80;;;;;;;;;;5527716;26;20320;-79
2024/04/27 07:41:34;;;;;;;2.90;2.70;;;;;;;;;;5528768;26;20425;-79
2024/04/27 07:44:00;;;;;;;3.25;2.97;;;;;;;;;;5502838;26;20444;-79
2024/04/27 07:46:26;;;;;;;3.45;3.15;;;;;;;;;;5528464;26;20351;-78
2024/04/27 07:48:53;;;;;;;3.30;3.00;;;;;;;;;;5528342;26;20372;-78
2024/04/27 07:51:21;;;;;;;3.58;3.28;;;;;;;;;;5527717;26;20391;-78
2024/04/27 07:53:47;;;;;;;3.60;3.30;;;;;;;;;;5521590;25;20373;-78
2024/04/27 07:56:13;;;;;;;3.13;2.80;;;;;;;;;;5511778;26;20331;-78
2024/04/27 07:58:39;;;;;;;3.30;3.00;;;;;;;;;;5527127;26;20698;-78
2024/04/27 08:01:06;;;;;;;2.90;2.70;;;;;;;;;;5527239;26;20323;-78
2024/04/27 08:03:32;;;;;;;3.40;3.10;;;;;;;;;;5527625;26;20804;-78
2024/04/27 08:05:58;;;;;;;3.70;3.28;;;;;;;;;;5526203;26;20669;-78
2024/04/27 08:08:24;;;;;;;3.38;3.08;;;;;;;;;;5527081;26;20320;-78
2024/04/27 08:10:50;;;;;;;3.80;3.30;;;;;;;;;;5527812;26;20323;-78
2024/04/27 08:13:16;;;;;;;3.40;3.10;;;;;;;;;;5527687;26;20320;-78
2024/04/27 08:15:42;;;;;;;3.50;3.20;;;;;;;;;;5527648;26;20324;-77
2024/04/27 08:18:08;;;;;;;3.20;2.90;;;;;;;;;;5526620;26;20372;-77
2024/04/27 08:20:34;;;;;;;3.22;3.00;;;;;;;;;;5527755;26;20327;-79
2024/04/27 08:23:00;;;;;;;3.35;3.05;;;;;;;;;;5527153;26;20320;-77
2024/04/27 08:25:26;;;;;;;3.35;3.05;;;;;;;;;;5526601;26;20327;-77
2024/04/27 08:27:54;;;;;;;3.40;3.10;;;;;;;;;;5526868;26;20327;-77
2024/04/27 08:30:20;;;;;;;2.80;2.60;;;;;;;;;;5525946;25;20336;-77
2024/04/27 08:32:46;;;;;;;3.17;2.88;;;;;;;;;;5527150;26;20331;-78
2024/04/27 08:35:12;;;;;;;3.05;2.85;;;;;;;;;;5527238;26;20316;-78
2024/04/27 08:37:38;;;;;;;2.97;2.40;;;;;;;;;;5526045;26;20335;-78
2024/04/27 08:40:04;;;;;;;3.10;2.83;;;;;;;;;;5527002;26;20331;-78
2024/04/27 08:42:30;;;;;;;2.50;2.20;;;;;;;;;;5527055;25;20672;-78
2024/04/27 08:44:56;;;;;;;2.67;2.47;;;;;;;;;;5527637;26;20319;-78
2024/04/27 08:47:22;;;;;;;2.53;2.33;;;;;;;;;;5528394;26;20320;-78
2024/04/27 08:49:49;;;;;;;3.13;2.42;;;;;;;;;;5527259;26;20363;-78
2024/04/27 08:52:15;;;;;;;3.45;2.47;;;;;;;;;;5527655;26;20343;-78
2024/04/27 08:54:41;;;;;;;2.40;2.10;;;;;;;;;;5518793;26;20675;-78
2024/04/27 08:57:08;;;;;;;2.58;2.25;;;;;;;;;;5520732;26;20331;-78
2024/04/27 08:59:34;;;;;;;2.33;2.13;;;;;;;;;;5528142;26;20392;-79
2024/04/27 09:02:01;;;;;;;2.28;2.08;;;;;;;;;;5529780;26;20382;-79
2024/04/27 09:04:27;;;;;;;2.67;2.10;;;;;;;;;;5530647;26;20769;-79
2024/04/27 09:06:53;;;;;;;2.20;2.00;;;;;;;;;;5529834;26;20429;-79
2024/04/27 09:09:27;;;;;;;2.92;2.10;;;;;;;;;;5529684;26;20340;-80
2024/04/27 09:11:53;;;;;;;2.22;1.83;;;;;;;;;;5528910;25;20390;-80
2024/04/27 09:14:19;;;;;;;2.22;2.03;;;;;;;;;;5528004;26;20387;-79
2024/04/27 09:16:48;;;;;;;3.05;2.20;;;;;;;;;;5528452;25;20429;-79
2024/04/27 09:19:14;;;;;;;2.28;1.90;;;;;;;;;;5529553;26;20324;-80
2024/04/27 09:21:41;;;;;;;1.80;1.70;;;;;;;;;;5529483;26;20328;-82
2024/04/27 09:24:07;;;;;;;4.10;2.10;;;;;;;;;;5529402;26;20331;-80
2024/04/27 09:26:33;;;;;;;2.17;1.80;;;;;;;;;;5529912;26;20327;-80
2024/04/27 09:28:59;;;;;;;2.95;1.70;;;;;;;;;;5529477;26;20363;-80
2024/04/27 09:31:25;;;;;;;2.60;1.83;;;;;;;;;;5529848;26;20324;-80
2024/04/27 09:33:51;;;;;;;3.37;1.97;;;;;;;;;;5527699;26;20327;-80
2024/04/27 09:36:17;;;;;;;1.95;1.75;;;;;;;;;;5529792;26;20419;-81
2024/04/27 09:38:52;;;;;;;2.13;1.92;;;;;;;;;;5529410;26;20371;-80
2024/04/27 09:41:23;;;;;;;2.28;1.80;;;;;;;;;;5528752;26;20853;-79
2024/04/27 09:43:52;;;;;;;2.80;1.67;;;;;;;;;;5500175;26;20358;-80
2024/04/27 09:46:40;;;;;;;1.13;1.00;;;;;;;;;;5522320;26;20412;-80
2024/04/27 09:49:11;;;;;;;0.88;0.65;;;;;;;;;;5500350;26;20388;-80
2024/04/27 09:51:38;;;;;;;0.83;0.70;;;;;;;;;;5526711;25;20383;-80
2024/04/27 09:54:04;;;;;;;1.27;0.98;;;;;;;;;;5527463;26;20336;-80
2024/04/27 09:56:30;;;;;;;1.98;0.95;;;;;;;;;;5511818;26;20343;-80
2024/04/27 09:58:57;;;;;;;0.75;0.60;;;;;;;;;;5526591;26;20356;-80
2024/04/27 10:01:23;;;;;;;1.88;0.60;;;;;;;;;;5527231;26;20335;-80
2024/04/27 10:03:50;;;;;;;1.40;0.68;;;;;;;;;;5527083;26;20383;-79
2024/04/27 10:06:19;;;;;;;1.10;0.70;;;;;;;;;;5526356;26;20320;-80
2024/04/27 10:08:50;;;;;;;0.80;0.55;;;;;;;;;;5526164;26;20413;-80
2024/04/27 10:11:16;;;;;;;0.60;0.50;;;;;;;;;;5526271;26;20439;-80
2024/04/27 10:13:48;;;;;;;0.80;0.60;;;;;;;;;;5526414;26;20368;-80
2024/04/27 10:16:14;;;;;;;1.77;0.57;;;;;;;;;;5526329;26;20327;-80
2024/04/27 10:18:40;;;;;;;1.00;0.30;;;;;;;;;;5526173;26;20721;-79
2024/04/27 10:21:06;;;;;;;0.40;0.40;;;;;;;;;;5524862;26;20320;-79
2024/04/27 10:23:32;;;;;;;1.90;0.30;;;;;;;;;;5526060;26;20401;-79
2024/04/27 10:26:05;;;;;;;0.73;0.50;;;;;;;;;;5525808;26;20324;-79
2024/04/27 10:28:31;;;;;;;0.50;0.40;;;;;;;;;;5525747;26;20328;-79
2024/04/27 10:30:57;;;;;;;0.80;0.50;;;;;;;;;;5525696;26;20324;-79
2024/04/27 10:33:24;;;;;;;0.57;0.40;;;;;;;;;;5526227;26;20340;-79
2024/04/27 10:35:51;;;;;;;0.80;0.40;;;;;;;;;;5526029;26;20332;-80
2024/04/27 10:38:39;;;;;;;0.60;0.40;;;;;;;;;;5525301;25;20354;-79
2024/04/27 10:41:07;;;;;;;0.70;0.50;;;;;;;;;;5525481;25;20331;-79
2024/04/27 10:43:33;;;;;;;0.70;0.40;;;;;;;;;;5525748;25;20354;-80
2024/04/27 10:45:59;;;;;;;1.10;0.40;;;;;;;;;;5525482;26;20820;-79
2024/04/27 10:48:25;;;;;;;0.80;0.40;;;;;;;;;;5526018;26;20328;-79
2024/04/27 10:50:51;;;;;;;0.37;0.30;;;;;;;;;;5525189;26;20332;-79
2024/04/27 10:53:20;;;;;;;0.40;0.40;;;;;;;;;;5525294;26;20332;-79
2024/04/27 10:55:46;;;;;;;0.30;0.30;;;;;;;;;;5508988;26;20665;-79
2024/04/27 10:58:12;;;;;;;0.40;0.40;;;;;;;;;;5524801;26;20336;-79
2024/04/27 11:00:39;;;;;;;0.50;0.40;;;;;;;;;;5524531;26;20328;-79
2024/04/27 11:03:05;;;;;;;1.02;0.50;;;;;;;;;;5525102;26;20868;-79
2024/04/27 11:05:34;;;;;;;0.60;0.43;;;;;;;;;;5524853;26;20673;-79
2024/04/27 11:08:00;;;;;;;0.68;0.52;;;;;;;;;;5524947;25;20364;-79
2024/04/27 11:10:26;;;;;;;0.80;0.60;;;;;;;;;;5524957;26;20331;-79
2024/04/27 11:12:52;;;;;;;0.22;0.22;;;;;;;;;;5525165;26;20324;-79
2024/04/27 11:15:24;;;;;;;0.90;0.30;;;;;;;;;;5525579;26;20324;-79
2024/04/27 11:17:50;;;;;;;0.60;0.30;;;;;;;;;;5525067;26;20416;-79
2024/04/27 11:20:16;;;;;;;0.38;0.20;;;;;;;;;;5525242;26;20417;-79
2024/04/27 11:22:42;;;;;;;0.35;0.20;;;;;;;;;;5525005;26;20328;-80
2024/04/27 11:25:08;;;;;;;0.20;0.20;;;;;;;;;;5524908;26;20323;-80
2024/04/27 11:27:34;;;;;;;0.40;0.20;;;;;;;;;;5524471;26;20343;-80
2024/04/27 11:30:00;;;;;;;0.50;0.40;;;;;;;;;;5524348;26;20372;-80
2024/04/27 11:32:26;;;;;;;0.40;0.20;;;;;;;;;;5524519;26;20336;-80
2024/04/27 11:34:52;;;;;;;0.30;0.20;;;;;;;;;;5524076;26;20323;-80
2024/04/27 11:37:18;;;;;;;0.30;0.30;;;;;;;;;;5524369;26;20678;-80
2024/04/27 11:39:44;;;;;;;0.50;0.20;;;;;;;;;;5524392;26;20429;-80
2024/04/27 11:42:10;;;;;;;0.50;0.20;;;;;;;;;;5524043;26;20352;-80
2024/04/27 11:44:36;;;;;;;0.15;0.15;;;;;;;;;;5523884;26;20331;-80
2024/04/27 11:47:02;;;;;;;0.10;0.10;;;;;;;;;;5501294;26;20959;-81
2024/04/27 11:49:28;;;;;;;0.60;0.30;;;;;;;;;;5524289;26;20324;-81
2024/04/27 11:51:54;;;;;;;0.40;0.20;;;;;;;;;;5524745;26;20364;-80
2024/04/27 11:54:20;;;;;;;0.20;0.20;;;;;;;;;;5521062;26;20331;-81
2024/04/27 11:56:46;;;;;;;1.25;0.25;;;;;;;;;;5511157;26;20362;-81
2024/04/27 11:59:12;;;;;;;0.30;0.22;;;;;;;;;;5524623;26;20432;-80
2024/04/27 12:01:38;;;;;;;0.20;0.20;;;;;;;;;;5523913;26;20335;-80
2024/04/27 12:04:04;;;;;;;1.20;0.20;;;;;;;;;;5524003;26;20327;-80
2024/04/27 12:06:30;;;;;;;0.30;0.30;;;;;;;;;;5524087;26;20356;-81
2024/04/27 12:08:56;;;;;;;0.40;0.30;;;;;;;;;;5523704;26;20364;-81
2024/04/27 12:11:22;;;;;;;1.50;0.40;;;;;;;;;;5523966;26;20328;-81
2024/04/27 12:13:48;;;;;;;0.20;0.20;;;;;;;;;;5526525;26;20374;-81
2024/04/27 12:16:14;;;;;;;0.30;0.30;;;;;;;;;;5527364;26;20425;-81
2024/04/27 12:18:40;;;;;;;0.30;0.30;;;;;;;;;;5527533;26;20328;-81
2024/04/27 12:21:06;;;;;;;0.75;0.40;;;;;;;;;;5527586;26;20328;-81
2024/04/27 12:23:32;;;;;;;1.05;0.30;;;;;;;;;;5526964;26;20709;-81
2024/04/27 12:25:58;;;;;;;0.38;0.28;;;;;;;;;;5527233;26;20340;-81
2024/04/27 12:28:24;;;;;;;0.60;0.20;;;;;;;;;;5526448;26;20344;-81
2024/04/27 12:30:50;;;;;;;0.40;0.30;;;;;;;;;;5528057;26;20876;-81
2024/04/27 12:33:15;;;;;;;0.40;0.20;;;;;;;;;;5527343;26;20331;-81
2024/04/27 12:35:41;;;;;;;0.45;0.30;;;;;;;;;;5526951;26;20331;-81
2024/04/27 12:38:07;;;;;;;0.10;0.10;;;;;;;;;;5527465;26;20468;-81
2024/04/27 12:40:33;;;;;;;0.32;0.20;;;;;;;;;;5526642;26;20374;-81
2024/04/27 12:42:59;;;;;;;0.20;0.20;;;;;;;;;;5527417;26;20332;-80
2024/04/27 12:45:25;;;;;;;0.20;0.20;;;;;;;;;;5526636;26;20343;-80
2024/04/27 12:47:51;;;;;;;0.40;0.20;;;;;;;;;;5527010;26;20385;-80
2024/04/27 12:50:17;;;;;;;0.30;0.20;;;;;;;;;;5526943;26;20354;-80
2024/04/27 12:52:43;;;;;;;0.70;0.20;;;;;;;;;;5527855;26;20327;-81
2024/04/27 12:55:09;;;;;;;0.20;0.20;;;;;;;;;;5511151;26;20866;-80
2024/04/27 12:57:35;;;;;;;1.20;0.15;;;;;;;;;;5526727;26;20328;-80
2024/04/27 13:00:01;;;;;;;0.70;0.20;;;;;;;;;;5526889;26;20327;-81
2024/04/27 13:02:27;;;;;;;0.75;0.20;;;;;;;;;;5526148;26;20368;-80
2024/04/27 13:04:53;;;;;;;0.38;0.30;;;;;;;;;;5526461;26;20336;-80
2024/04/27 13:07:20;;;;;;;0.20;0.10;;;;;;;;;;5526938;26;20335;-81
2024/04/27 13:09:46;;;;;;;0.70;0.20;;;;;;;;;;5526510;25;20405;-81
2024/04/27 13:12:12;;;;;;;0.37;0.10;;;;;;;;;;5527017;26;20327;-80
2024/04/27 13:14:38;;;;;;;0.70;0.30;;;;;;;;;;5526629;26;20331;-80
2024/04/27 13:17:04;;;;;;;0.30;0.20;;;;;;;;;;5526364;26;20371;-80
2024/04/27 13:19:30;;;;;;;0.57;0.20;;;;;;;;;;5526109;26;20336;-80
2024/04/27 13:21:56;;;;;;;0.47;0.20;;;;;;;;;;5526241;26;20824;-80
2024/04/27 13:24:22;;;;;;;0.35;0.20;;;;;;;;;;5526408;26;20339;-81
2024/04/27 13:26:48;;;;;;;0.90;0.22;;;;;;;;;;5526464;26;20394;-81
2024/04/27 13:29:14;;;;;;;0.60;0.30;;;;;;;;;;5526627;26;20437;-81
2024/04/27 13:31:40;;;;;;;0.47;0.35;;;;;;;;;;5526375;26;20328;-80
2024/04/27 13:34:06;;;;;;;0.30;0.20;;;;;;;;;;5526282;26;20331;-80
2024/04/27 13:36:32;;;;;;;0.80;0.20;;;;;;;;;;5524057;26;20370;-80
2024/04/27 13:38:58;;;;;;;0.30;0.30;;;;;;;;;;5504344;26;20355;-80
2024/04/27 13:41:24;;;;;;;0.47;0.30;;;;;;;;;;5525759;26;20336;-80
2024/04/27 13:43:50;;;;;;;0.80;0.40;;;;;;;;;;5526560;26;20438;-80
2024/04/27 13:46:16;;;;;;;1.55;0.52;;;;;;;;;;5526756;26;20761;-80
2024/04/27 13:48:42;;;;;;;0.90;0.60;;;;;;;;;;5526154;26;20798;-80
2024/04/27 13:51:08;;;;;;;0.52;0.30;;;;;;;;;;5525882;26;20328;-80
2024/04/27 13:53:35;;;;;;;0.40;0.20;;;;;;;;;;5526126;26;21306;-80
2024/04/27 13:56:01;;;;;;;1.05;0.30;;;;;;;;;;5509939;25;20331;-80
2024/04/27 13:58:27;;;;;;;0.52;0.20;;;;;;;;;;5526015;26;20727;-80
2024/04/27 14:00:53;;;;;;;0.60;0.40;;;;;;;;;;5525617;26;20332;-80
2024/04/27 14:03:19;;;;;;;0.30;0.30;;;;;;;;;;5525817;26;20428;-80
2024/04/27 14:05:45;;;;;;;0.73;0.10;;;;;;;;;;5499812;26;20350;-80
2024/04/27 14:08:11;;;;;;;0.70;0.40;;;;;;;;;;5525429;26;20332;-80
2024/04/27 14:10:36;;;;;;;0.40;0.30;;;;;;;;;;5525489;26;20375;-80
2024/04/27 14:13:03;;;;;;;1.58;0.38;;;;;;;;;;5525929;26;20328;-80
2024/04/27 14:15:29;;;;;;;1.00;0.40;;;;;;;;;;5526127;26;20328;-80
2024/04/27 14:17:55;;;;;;;1.40;0.60;;;;;;;;;;5525339;26;20364;-80
2024/04/27 14:20:21;;;;;;;0.90;0.40;;;;;;;;;;5526098;26;20409;-80
2024/04/27 14:22:47;;;;;;;1.17;0.40;;;;;;;;;;5525564;26;20328;-80
2024/04/27 14:25:13;;;;;;;0.80;0.30;;;;;;;;;;5525192;26;20339;-80
2024/04/27 14:27:39;;;;;;;0.68;0.50;;;;;;;;;;5525830;26;20374;-80
2024/04/27 14:30:05;;;;;;;0.30;0.30;;;;;;;;;;5525199;26;20327;-80
2024/04/27 14:32:31;;;;;;;0.20;0.20;;;;;;;;;;5525774;26;20358;-80
2024/04/27 14:34:57;;;;;;;1.60;1.50;;;;;;;;;;5524582;26;20665;-80
2024/04/27 14:37:23;;;;;;;1.10;0.60;;;;;;;;;;5524926;26;20363;-80
2024/04/27 14:39:49;;;;;;;1.02;0.57;;;;;;;;;;5525375;26;20323;-80